Thor, South Carolina
Current Conditions -  °F | °C
As of 12:56 AM on Monday 26 Jan 2015 (Local Time) from KCAE Reporting Station
Broken Clouds Broken Clouds  
Wind Chill: 40°   Ceiling: 11000
Heat Index: 40°   Visibility: 10mi
Dew Point: 34°   Wind: 0mph
Humidity: 79%   Direction: NA
Pressure: 29.74"   Gusts: NA
Location:  33.7682°N, 81.2599°W
Report Text: KCAE 260556Z 00000KT 10SM BKN110 04/01 A2974 RMK AO2 SLP072 T00440011 10117 20044 58027 $
Loading
Personal Weather Stations






























Interactive Weather Map New forecast layout! Learn more

10-Day Weather Forecast

Advertisements
Track Severe Weather on mobile